Terminal Aerodrome Forecast
Issued by NWS

Home | Current Version | Previous Version | Graphics & Text | Print | Product List | Glossary On
Versions: 1 2 3 4 5 6 7 8 9 10 11 12 13 14 15 16 17 18 19 20 21 22
000
FTUS43 KICT 270239 AAB
TAFCNU
TAF AMD
KCNU 270239Z 2703/2724 05011KT P6SM VCSH SCT030 OVC060
     FM270400 05011KT 6SM SHRA VCTS SCT015 BKN030CB
      TEMPO 2704/2708 VRB20G35KT 2SM +TSRA OVC015CB
     FM270800 36010KT 4SM BR VCSH OVC008
     FM271600 35012KT P6SM OVC020
     FM272000 36008KT P6SM SCT025=

USA.gov is the U.S. government's official web portal to all federal, state and local government web resources and services.